createdAt,value
2023-04-21T00:02:00.913Z,45.85
2023-04-21T00:04:29.789Z,46.53
2023-04-21T00:06:58.532Z,46.22
2023-04-21T00:09:27.994Z,45.67
2023-04-21T00:11:56.347Z,45.43
2023-04-21T00:14:24.310Z,42.45
2023-04-21T00:16:53.373Z,44.95
2023-04-21T00:19:21.662Z,44.33
2023-04-21T00:21:49.532Z,45.00
2023-04-21T00:24:17.460Z,44.28
2023-04-21T00:26:46.668Z,42.80
2023-04-21T00:29:14.613Z,42.95
2023-04-21T00:31:42.545Z,40.83
2023-04-21T00:34:10.798Z,39.90
2023-04-21T00:36:38.617Z,40.15
2023-04-21T00:39:07.183Z,41.38
2023-04-21T00:41:38.624Z,38.97
2023-04-21T00:44:08.976Z,39.13
2023-04-21T00:46:38.632Z,37.03
2023-04-21T00:49:08.487Z,38.60
2023-04-21T00:51:38.581Z,39.47
2023-04-21T00:54:10.454Z,37.42
2023-04-21T00:56:38.253Z,35.88
2023-04-21T00:59:07.750Z,35.00
2023-04-21T01:01:36.546Z,36.10
2023-04-21T01:04:05.954Z,37.85
2023-04-21T01:06:34.696Z,34.53
2023-04-21T01:09:05.284Z,34.38
2023-04-21T01:11:33.295Z,35.65
2023-04-21T01:14:01.547Z,35.40
2023-04-21T01:16:32.636Z,35.28
2023-04-21T01:19:01.382Z,36.78
2023-04-21T01:21:32.109Z,36.65
2023-04-21T01:24:03.838Z,34.90
2023-04-21T01:26:31.633Z,34.77
2023-04-21T01:28:59.451Z,33.30
2023-04-21T01:31:29.258Z,33.83
2023-04-21T01:33:57.113Z,32.85
2023-04-21T01:36:24.971Z,32.58
2023-04-21T01:38:53.530Z,34.13
2023-04-21T01:41:24.888Z,34.13
2023-04-21T01:43:55.510Z,34.67
2023-04-21T01:46:25.341Z,34.63
2023-04-21T01:48:53.348Z,37.80
2023-04-21T01:51:21.158Z,35.40
2023-04-21T01:53:48.942Z,35.35
2023-04-21T01:56:18.908Z,35.15
2023-04-21T01:58:48.362Z,33.13
2023-04-21T02:01:16.326Z,34.53
2023-04-21T02:03:44.292Z,34.15
2023-04-21T02:06:13.994Z,34.25
2023-04-21T02:08:41.814Z,33.05
2023-04-21T02:11:09.800Z,32.28
2023-04-21T02:13:37.653Z,34.00
2023-04-21T02:16:13.321Z,34.13
2023-04-21T02:18:42.403Z,34.10
2023-04-21T02:21:10.241Z,33.85
2023-04-21T02:23:38.038Z,33.88
2023-04-21T02:26:06.380Z,36.13
2023-04-21T02:28:34.189Z,33.38
2023-04-21T02:31:02.137Z,34.15
2023-04-21T02:33:31.442Z,33.20
2023-04-21T02:35:59.397Z,33.70
2023-04-21T02:38:27.299Z,33.85
2023-04-21T02:40:55.167Z,34.72
2023-04-21T02:43:22.991Z,32.58
2023-04-21T02:45:50.886Z,34.72
2023-04-21T02:48:22.912Z,32.53
2023-04-21T02:50:54.022Z,37.22
2023-04-21T02:53:21.976Z,37.45
2023-04-21T02:55:49.808Z,33.08
2023-04-21T02:58:17.687Z,34.65
2023-04-21T03:00:45.918Z,34.85
2023-04-21T03:03:13.900Z,31.95
2023-04-21T03:05:43.575Z,35.15
2023-04-21T03:08:12.778Z,35.20
2023-04-21T03:10:40.778Z,35.78
2023-04-21T03:13:08.592Z,37.63
2023-04-21T03:15:36.435Z,37.67
2023-04-21T03:18:04.303Z,37.95
2023-04-21T03:20:32.138Z,39.58
2023-04-21T03:22:59.969Z,37.25
2023-04-21T03:25:29.508Z,35.92
2023-04-21T03:27:57.645Z,36.67
2023-04-21T03:30:26.968Z,37.57
2023-04-21T03:32:55.743Z,35.58
2023-04-21T03:35:23.723Z,38.72
2023-04-21T03:37:51.810Z,38.20
2023-04-21T03:40:19.791Z,40.90
2023-04-21T03:42:48.970Z,36.95
2023-04-21T03:45:19.526Z,39.97
2023-04-21T03:47:47.372Z,38.47
2023-04-21T03:50:15.394Z,39.55
2023-04-21T03:52:43.178Z,35.60
2023-04-21T03:55:12.071Z,37.03
2023-04-21T03:57:41.277Z,37.35
2023-04-21T04:00:11.670Z,37.78
2023-04-21T04:02:43.823Z,35.83
2023-04-21T04:05:11.892Z,36.20
2023-04-21T04:07:39.694Z,33.78
2023-04-21T04:10:07.839Z,34.30
2023-04-21T04:12:35.635Z,35.17
2023-04-21T04:15:03.732Z,34.28
2023-04-21T04:17:32.972Z,34.88
2023-04-21T04:20:01.828Z,34.20
2023-04-21T04:22:29.663Z,33.85
2023-04-21T04:24:59.840Z,32.90
2023-04-21T04:27:29.526Z,32.35
2023-04-21T04:29:57.670Z,32.85
2023-04-21T04:32:28.615Z,33.47
2023-04-21T04:34:58.868Z,33.55
2023-04-21T04:37:26.763Z,34.20
2023-04-21T04:39:54.602Z,35.33
2023-04-21T04:42:22.448Z,32.05
2023-04-21T04:44:50.569Z,33.53
2023-04-21T04:47:18.340Z,30.98
2023-04-21T04:49:46.183Z,31.00
2023-04-21T04:52:15.514Z,33.10
2023-04-21T04:54:43.416Z,33.93
2023-04-21T04:57:11.228Z,33.55
2023-04-21T04:59:39.128Z,33.58
2023-04-21T05:02:08.581Z,35.63
2023-04-21T05:04:36.671Z,33.00
2023-04-21T05:07:06.063Z,32.83
2023-04-21T05:09:35.872Z,32.50
2023-04-21T05:12:04.025Z,32.50
2023-04-21T05:14:31.780Z,33.58
2023-04-21T05:16:59.671Z,31.95
2023-04-21T05:19:27.578Z,31.90
2023-04-21T05:22:00.693Z,30.83
2023-04-21T05:24:28.910Z,30.23
2023-04-21T05:26:58.141Z,31.05
2023-04-21T05:29:26.045Z,30.75
2023-04-21T05:31:53.950Z,31.02
2023-04-21T05:34:22.154Z,30.92
2023-04-21T05:36:50.091Z,33.03
2023-04-21T05:39:18.159Z,29.77
2023-04-21T05:41:46.094Z,29.75
2023-04-21T05:44:17.678Z,30.20
2023-04-21T05:46:45.956Z,29.75
2023-04-21T05:49:13.981Z,28.20
2023-04-21T05:51:42.378Z,27.30
2023-04-21T05:54:10.220Z,29.48
2023-04-21T05:56:38.314Z,27.58
2023-04-21T05:59:06.902Z,30.00
2023-04-21T06:01:37.474Z,27.90
2023-04-21T06:04:05.624Z,26.63
2023-04-21T06:06:33.849Z,26.45
2023-04-21T06:09:01.989Z,28.52
2023-04-21T06:11:29.730Z,27.75
2023-04-21T06:13:59.468Z,26.25
2023-04-21T06:16:27.913Z,27.10
2023-04-21T06:18:58.901Z,24.65
2023-04-21T06:21:26.895Z,25.00
2023-04-21T06:23:54.750Z,22.55
2023-04-21T06:26:22.732Z,22.38
2023-04-21T06:28:50.657Z,22.55
2023-04-21T06:31:19.816Z,21.73
2023-04-21T06:33:47.807Z,21.63
2023-04-21T06:36:18.102Z,20.90
2023-04-21T06:38:46.348Z,21.27
2023-04-21T06:41:14.104Z,21.13
2023-04-21T06:43:42.095Z,20.52
2023-04-21T06:46:09.936Z,21.05
2023-04-21T06:48:37.694Z,20.17
2023-04-21T06:51:05.804Z,19.90
2023-04-21T06:53:35.183Z,20.58
2023-04-21T06:56:03.060Z,18.83
2023-04-21T06:58:30.826Z,20.17
2023-04-21T07:00:58.659Z,18.30
2023-04-21T07:03:26.579Z,19.23
2023-04-21T07:05:54.518Z,20.50
2023-04-21T07:08:22.366Z,18.80
2023-04-21T07:10:51.530Z,19.42
2023-04-21T07:13:19.569Z,19.17
2023-04-21T07:15:47.534Z,17.63
2023-04-21T07:18:15.481Z,19.55
2023-04-21T07:20:43.425Z,18.75
2023-04-21T07:23:11.251Z,17.05
2023-04-21T07:25:39.153Z,15.73
2023-04-21T07:28:08.295Z,17.25
2023-04-21T07:33:05.114Z,17.40
2023-04-21T07:35:32.927Z,17.15
2023-04-21T07:38:00.761Z,16.58
2023-04-21T07:40:28.799Z,17.30
2023-04-21T07:42:56.792Z,16.30
2023-04-21T07:45:26.427Z,16.73
2023-04-21T07:47:54.762Z,16.73
2023-04-21T07:50:22.590Z,16.33
2023-04-21T07:52:50.596Z,15.25
2023-04-21T07:55:18.510Z,15.50
2023-04-21T07:57:46.336Z,13.65
2023-04-21T08:00:15.872Z,14.30
2023-04-21T08:02:45.087Z,14.73
2023-04-21T08:05:13.316Z,13.93
2023-04-21T08:07:41.143Z,13.77
2023-04-21T08:10:10.326Z,13.55
2023-04-21T08:12:40.169Z,12.98
2023-04-21T08:15:08.813Z,14.05
2023-04-21T08:17:36.642Z,13.25
2023-04-21T08:20:06.988Z,13.82
2023-04-21T08:25:03.882Z,14.07
2023-04-21T08:27:31.633Z,13.77
2023-04-21T08:30:00.228Z,12.23
2023-04-21T08:32:28.106Z,13.02
2023-04-21T08:34:56.163Z,12.38
2023-04-21T08:37:25.667Z,13.45
2023-04-21T08:39:54.434Z,13.23
2023-04-21T08:42:22.308Z,13.25
2023-04-21T08:44:50.287Z,13.00
2023-04-21T08:47:18.386Z,12.77
2023-04-21T08:49:46.383Z,12.27
2023-04-21T08:52:14.773Z,12.93
2023-04-21T08:54:44.236Z,13.20
2023-04-21T08:57:15.923Z,12.18
2023-04-21T08:59:46.083Z,10.88
2023-04-21T09:02:16.235Z,10.23
2023-04-21T09:04:46.444Z,10.13
2023-04-21T09:10:01.324Z,10.15
2023-04-21T09:12:30.412Z,11.88
2023-04-21T09:14:59.137Z,10.90
2023-04-21T09:17:32.659Z,11.23
2023-04-21T09:20:14.598Z,10.55
2023-04-21T09:22:42.551Z,10.25
2023-04-21T09:25:16.696Z,10.50
2023-04-21T09:27:45.061Z,9.77
2023-04-21T09:30:13.532Z,10.20
2023-04-21T09:32:41.766Z,10.93
2023-04-21T09:35:11.929Z,9.63
2023-04-21T09:37:40.334Z,10.07
2023-04-21T09:40:08.949Z,10.32
2023-04-21T09:42:39.632Z,10.10
2023-04-21T09:45:28.932Z,10.25
2023-04-21T09:48:00.441Z,10.13
2023-04-21T09:50:44.782Z,10.07
2023-04-21T09:53:22.807Z,9.95
2023-04-21T09:55:56.356Z,8.05
2023-04-21T09:58:29.148Z,9.43
2023-04-21T10:00:58.431Z,9.02
2023-04-21T10:03:28.860Z,10.18
2023-04-21T10:05:57.418Z,8.75
2023-04-21T10:08:25.284Z,8.93
2023-04-21T10:10:54.428Z,9.60
2023-04-21T10:13:23.434Z,8.15
2023-04-21T10:16:03.056Z,8.18
2023-04-21T10:18:30.957Z,8.52
2023-04-21T10:21:02.821Z,8.02
2023-04-21T10:23:32.154Z,9.02
2023-04-21T10:26:04.593Z,8.77
2023-04-21T10:28:41.244Z,9.20
2023-04-21T10:31:31.423Z,8.88
2023-04-21T10:34:30.466Z,8.20
2023-04-21T10:37:18.931Z,7.80
2023-04-21T10:39:53.761Z,7.53
2023-04-21T10:42:24.640Z,7.28
2023-04-21T10:44:54.644Z,7.85
2023-04-21T10:47:34.358Z,7.72
2023-04-21T10:50:13.179Z,7.07
2023-04-21T10:52:44.419Z,6.43
2023-04-21T10:55:13.322Z,6.63
2023-04-21T10:57:43.910Z,6.50
2023-04-21T11:00:15.605Z,6.07
2023-04-21T11:02:45.381Z,5.82
2023-04-21T11:05:14.084Z,6.38
2023-04-21T11:07:41.984Z,6.68
2023-04-21T11:10:11.383Z,6.15
2023-04-21T11:12:40.801Z,7.18
2023-04-21T11:15:10.761Z,5.80
2023-04-21T11:17:39.949Z,5.20
2023-04-21T11:20:10.533Z,5.67
2023-04-21T11:22:39.058Z,5.63
2023-04-21T11:25:17.505Z,5.55
2023-04-21T11:27:54.859Z,5.45
2023-04-21T11:30:23.277Z,4.43
2023-04-21T11:32:56.037Z,3.67
2023-04-21T11:35:25.905Z,4.07
2023-04-21T11:37:53.777Z,4.03
2023-04-21T11:40:23.059Z,3.83
2023-04-21T11:42:51.628Z,3.47
2023-04-21T11:45:22.427Z,3.90
2023-04-21T11:47:51.010Z,3.47
2023-04-21T11:50:33.191Z,3.83
2023-04-21T11:53:03.506Z,3.63
2023-04-21T11:55:31.395Z,3.13
2023-04-21T11:57:59.356Z,3.22
2023-04-21T12:00:31.921Z,3.53
2023-04-21T12:02:59.925Z,3.88
2023-04-21T12:05:37.958Z,3.25
2023-04-21T12:08:06.376Z,3.40
2023-04-21T12:10:34.323Z,3.28
2023-04-21T12:13:02.060Z,3.58
2023-04-21T12:15:32.140Z,3.22
2023-04-21T12:18:00.125Z,3.35
2023-04-21T12:20:31.166Z,3.40
2023-04-21T12:23:01.142Z,4.00
2023-04-21T12:25:29.248Z,3.38
2023-04-21T12:27:59.925Z,3.20
2023-04-21T12:30:27.893Z,3.45
2023-04-21T12:32:55.971Z,2.97
2023-04-21T12:35:23.976Z,3.17
2023-04-21T12:37:51.908Z,3.22
2023-04-21T12:40:21.171Z,3.05
2023-04-21T12:42:49.638Z,3.40
2023-04-21T12:45:17.590Z,3.30
2023-04-21T12:47:46.891Z,3.10
2023-04-21T12:50:15.197Z,2.97
2023-04-21T12:52:43.034Z,3.50
2023-04-21T12:55:13.342Z,4.00
2023-04-21T13:00:14.766Z,3.58
2023-04-21T13:02:42.838Z,3.47
2023-04-21T13:05:12.720Z,3.45
2023-04-21T13:07:41.563Z,3.45
2023-04-21T13:10:10.201Z,2.78
2023-04-21T13:12:38.367Z,2.83
2023-04-21T13:15:09.137Z,3.53
2023-04-21T13:17:37.079Z,3.15
2023-04-21T13:20:07.248Z,3.20
2023-04-21T13:25:04.523Z,3.58
2023-04-21T13:27:33.386Z,2.92
2023-04-21T13:30:01.407Z,2.75
2023-04-21T13:32:30.650Z,3.78
2023-04-21T13:34:58.480Z,2.72
2023-04-21T13:37:26.929Z,2.72
2023-04-21T13:39:54.722Z,2.75
2023-04-21T13:42:22.589Z,3.22
2023-04-21T13:44:50.481Z,3.08
2023-04-21T13:47:18.346Z,3.13
2023-04-21T13:49:47.530Z,3.45
2023-04-21T13:52:15.336Z,3.22
2023-04-21T13:54:43.283Z,3.00
2023-04-21T13:57:11.344Z,3.33
2023-04-21T13:59:39.445Z,3.25
2023-04-21T14:02:07.979Z,3.30
2023-04-21T14:04:36.556Z,3.20
2023-04-21T14:07:07.984Z,2.95
2023-04-21T14:09:36.030Z,4.32
2023-04-21T14:12:04.374Z,3.78
2023-04-21T14:17:05.665Z,3.55
2023-04-21T14:19:33.998Z,4.35
2023-04-21T14:22:02.112Z,3.72
2023-04-21T14:24:32.363Z,4.00
2023-04-21T14:27:01.103Z,3.47
2023-04-21T14:29:28.987Z,3.92
2023-04-21T14:31:58.605Z,4.18
2023-04-21T14:34:26.833Z,3.80
2023-04-21T14:36:55.195Z,3.72
2023-04-21T14:39:23.277Z,3.92
2023-04-21T14:41:53.338Z,3.92
2023-04-21T14:44:21.329Z,4.55
2023-04-21T14:47:01.008Z,4.50
2023-04-21T14:49:34.171Z,4.07
2023-04-21T14:52:03.533Z,3.80
2023-04-21T14:54:31.567Z,4.07
2023-04-21T14:57:17.422Z,3.83
2023-04-21T14:59:47.455Z,3.92
2023-04-21T15:02:15.665Z,3.92
2023-04-21T15:04:43.770Z,4.38
2023-04-21T15:07:11.767Z,4.93
2023-04-21T15:09:41.079Z,4.63
2023-04-21T15:12:12.717Z,4.20
2023-04-21T15:14:40.647Z,4.38
2023-04-21T15:17:08.715Z,3.80
2023-04-21T15:19:36.739Z,3.80
2023-04-21T15:22:05.804Z,4.15
2023-04-21T15:24:33.568Z,4.18
2023-04-21T15:27:02.245Z,4.22
2023-04-21T15:29:31.448Z,4.20
2023-04-21T15:31:59.298Z,4.72
2023-04-21T15:34:27.084Z,4.55
2023-04-21T15:36:54.922Z,4.15
2023-04-21T15:39:22.746Z,4.95
2023-04-21T15:41:50.800Z,4.47
2023-04-21T15:44:18.771Z,4.60
2023-04-21T15:46:48.229Z,4.63
2023-04-21T15:49:16.068Z,4.65
2023-04-21T15:51:44.080Z,5.03
2023-04-21T15:54:12.061Z,4.53
2023-04-21T15:56:40.311Z,4.55
2023-04-21T15:59:08.118Z,4.82
2023-04-21T16:01:36.092Z,5.20
2023-04-21T16:04:06.358Z,4.43
2023-04-21T16:09:03.314Z,5.07
2023-04-21T16:11:31.108Z,4.50
2023-04-21T16:13:59.074Z,4.82
2023-04-21T16:16:27.034Z,4.90
2023-04-21T16:18:55.094Z,4.70
2023-04-21T16:21:24.389Z,4.32
2023-04-21T16:23:52.262Z,4.80
2023-04-21T16:26:20.200Z,5.22
2023-04-21T16:28:48.140Z,4.10
2023-04-21T16:31:16.249Z,4.40
2023-04-21T16:33:44.069Z,5.10
2023-04-21T16:36:12.038Z,4.18
2023-04-21T16:38:41.268Z,4.63
2023-04-21T16:41:09.241Z,6.40
2023-04-21T16:43:37.387Z,4.63
2023-04-21T16:46:05.295Z,4.10
2023-04-21T16:48:33.257Z,4.47
2023-04-21T16:51:01.147Z,4.45
2023-04-21T16:53:29.011Z,5.03
2023-04-21T16:55:58.506Z,5.05
2023-04-21T16:58:26.458Z,3.58
2023-04-21T17:00:54.327Z,4.30
2023-04-21T17:03:22.590Z,4.60
2023-04-21T17:05:50.732Z,4.43
2023-04-21T17:08:18.597Z,6.90
2023-04-21T17:10:46.484Z,3.83
2023-04-21T17:13:15.615Z,5.05
2023-04-21T17:15:43.514Z,4.97
2023-04-21T17:18:11.523Z,4.35
2023-04-21T17:20:39.536Z,4.13
2023-04-21T17:23:07.500Z,4.10
2023-04-21T17:25:38.098Z,5.68
2023-04-21T17:28:06.437Z,5.50
2023-04-21T17:30:36.343Z,4.60
2023-04-21T17:33:16.121Z,5.03
2023-04-21T17:35:56.193Z,5.88
2023-04-21T17:38:29.871Z,4.05
2023-04-21T17:40:57.676Z,4.22
2023-04-21T17:43:25.566Z,4.20
2023-04-21T17:45:54.802Z,4.63
2023-04-21T17:48:22.655Z,4.07
2023-04-21T17:50:50.635Z,3.95
2023-04-21T17:53:18.895Z,3.92
2023-04-21T17:55:46.739Z,4.57
2023-04-21T17:58:14.678Z,4.05
2023-04-21T18:00:42.569Z,4.13
2023-04-21T18:03:11.943Z,4.25
2023-04-21T18:05:40.672Z,3.75
2023-04-21T18:08:08.761Z,4.50
2023-04-21T18:10:37.324Z,4.05
2023-04-21T18:13:06.128Z,4.57
2023-04-21T18:15:34.129Z,4.97
2023-04-21T18:18:02.120Z,4.32
2023-04-21T18:20:31.491Z,4.50
2023-04-21T18:22:59.500Z,4.65
2023-04-21T18:25:41.512Z,4.93
2023-04-21T18:28:12.399Z,4.57
2023-04-21T18:30:40.561Z,4.30
2023-04-21T18:33:08.523Z,4.88
2023-04-21T18:35:38.110Z,4.28
2023-04-21T18:38:08.006Z,5.73
2023-04-21T18:40:37.038Z,4.78
2023-04-21T18:43:05.256Z,5.15
2023-04-21T18:45:33.915Z,4.28
2023-04-21T18:48:01.921Z,4.90
2023-04-21T18:50:30.172Z,5.40
2023-04-21T18:52:59.926Z,5.70
2023-04-21T18:55:27.747Z,5.05
2023-04-21T18:57:55.609Z,5.05
2023-04-21T19:00:23.899Z,4.80
2023-04-21T19:02:52.116Z,4.60
2023-04-21T19:05:20.463Z,4.82
2023-04-21T19:07:48.510Z,6.35
2023-04-21T19:10:18.302Z,6.57
2023-04-21T19:12:46.099Z,7.75
2023-04-21T19:15:14.084Z,6.20
2023-04-21T19:17:42.179Z,5.35
2023-04-21T19:20:11.271Z,5.18
2023-04-21T19:22:39.302Z,4.40
2023-04-21T19:25:08.584Z,4.13
2023-04-21T19:27:38.136Z,4.50
2023-04-21T19:30:07.102Z,6.55
2023-04-21T19:32:35.094Z,6.05
2023-04-21T19:35:02.948Z,8.07
2023-04-21T19:37:33.532Z,9.60
2023-04-21T19:40:03.179Z,8.18
2023-04-21T19:42:31.525Z,7.70
2023-04-21T19:45:00.731Z,6.35
2023-04-21T19:47:28.494Z,6.65
2023-04-21T19:49:56.460Z,6.90
2023-04-21T19:52:24.336Z,12.68
2023-04-21T19:54:52.531Z,8.88
2023-04-21T19:57:20.564Z,7.55
2023-04-21T19:59:49.024Z,7.93
2023-04-21T20:02:19.457Z,6.47
2023-04-21T20:04:48.743Z,7.97
2023-04-21T20:07:17.473Z,6.80
2023-04-21T20:09:45.469Z,9.00
2023-04-21T20:12:13.263Z,8.73
2023-04-21T20:14:41.131Z,6.15
2023-04-21T20:17:08.982Z,5.80
2023-04-21T20:19:40.576Z,5.32
2023-04-21T20:22:08.672Z,5.10
2023-04-21T20:24:36.555Z,8.63
2023-04-21T20:27:07.190Z,8.98
2023-04-21T20:29:36.746Z,8.68
2023-04-21T20:32:04.816Z,12.27
2023-04-21T20:34:32.741Z,8.75
2023-04-21T20:37:03.830Z,6.68
2023-04-21T20:39:31.661Z,6.22
2023-04-21T20:42:11.926Z,5.63
2023-04-21T20:44:42.498Z,5.22
2023-04-21T20:47:11.465Z,4.95
2023-04-21T20:49:39.979Z,4.55
2023-04-21T20:52:09.695Z,5.00
2023-04-21T20:54:38.282Z,4.22
2023-04-21T20:57:07.337Z,4.35
2023-04-21T20:59:35.559Z,4.82
2023-04-21T21:02:03.625Z,4.68
2023-04-21T21:04:31.653Z,4.25
2023-04-21T21:06:59.781Z,3.95
2023-04-21T21:09:29.037Z,4.38
2023-04-21T21:11:56.862Z,4.22
2023-04-21T21:14:24.735Z,4.28
2023-04-21T21:16:54.507Z,4.32
2023-04-21T21:19:22.424Z,4.20
2023-04-21T21:21:50.155Z,3.97
2023-04-21T21:24:17.986Z,4.55
2023-04-21T21:26:47.132Z,4.10
2023-04-21T21:29:14.986Z,4.03
2023-04-21T21:31:43.207Z,3.30
2023-04-21T21:34:11.117Z,3.97
2023-04-21T21:36:38.906Z,4.88
2023-04-21T21:39:09.594Z,4.82
2023-04-21T21:41:38.932Z,4.55
2023-04-21T21:44:08.754Z,4.10
2023-04-21T21:46:36.759Z,4.28
2023-04-21T21:49:04.787Z,4.18
2023-04-21T21:51:32.698Z,4.63
2023-04-21T21:54:00.615Z,4.80
2023-04-21T21:56:28.587Z,4.57
2023-04-21T21:58:56.462Z,4.82
2023-04-21T22:01:25.882Z,4.72
2023-04-21T22:03:54.187Z,4.50
2023-04-21T22:06:24.382Z,5.05
2023-04-21T22:08:52.723Z,4.70
2023-04-21T22:11:20.806Z,5.32
2023-04-21T22:13:48.689Z,4.80
2023-04-21T22:16:16.909Z,4.88
2023-04-21T22:18:47.277Z,4.72
2023-04-21T22:23:42.745Z,4.60
2023-04-21T22:26:10.709Z,4.97
2023-04-21T22:28:38.553Z,4.95
2023-04-21T22:31:06.742Z,5.28
2023-04-21T22:33:34.664Z,4.93
2023-04-21T22:36:03.838Z,5.57
2023-04-21T22:38:31.713Z,4.80
2023-04-21T22:40:59.508Z,5.38
2023-04-21T22:43:27.448Z,5.72
2023-04-21T22:45:55.520Z,5.22
2023-04-21T22:48:26.163Z,4.88
2023-04-21T22:50:54.355Z,4.57
2023-04-21T22:53:23.583Z,5.18
2023-04-21T22:55:51.504Z,5.20
2023-04-21T22:58:19.900Z,5.50
2023-04-21T23:00:47.803Z,5.35
2023-04-21T23:03:16.028Z,5.63
2023-04-21T23:05:43.956Z,5.05
2023-04-21T23:08:11.848Z,5.43
2023-04-21T23:10:41.471Z,6.88
2023-04-21T23:13:09.622Z,5.55
2023-04-21T23:15:37.555Z,5.18
2023-04-21T23:18:05.559Z,5.55
2023-04-21T23:20:33.734Z,5.22
2023-04-21T23:23:01.615Z,5.18
2023-04-21T23:25:29.591Z,5.55
2023-04-21T23:27:58.752Z,4.57
2023-04-21T23:30:26.700Z,4.97
2023-04-21T23:32:54.820Z,5.15
2023-04-21T23:35:22.843Z,5.20
2023-04-21T23:37:50.576Z,5.43
2023-04-21T23:40:18.614Z,4.88
2023-04-21T23:42:47.475Z,5.28
2023-04-21T23:45:17.097Z,5.32
2023-04-21T23:47:45.541Z,5.18
2023-04-21T23:50:13.589Z,4.43
2023-04-21T23:52:42.109Z,5.13
2023-04-21T23:55:11.847Z,5.10
2023-04-21T23:57:39.833Z,5.03
